Time;durP1;ratioP1;P1;durP2;ratioP2;P2;SDS_P1;SDS_P2;PMS_P1;PMS_P2;Temp;Humidity;BMP_temperature;BMP_pressure;BME280_temperature;BME280_humidity;BME280_pressure;Samples;Min_cycle;Max_cycle;Signal;HPM_P1;HPM_P2
2021/04/11 00:01:53;;;;;;;1999.90;999.90;;;;;;;10.82;100.00;60995.81;4997810;28;20344;-67
2021/04/11 00:04:40;;;;;;;1999.90;999.90;;;;;;;10.59;100.00;60390.72;4997828;28;20243;-67
2021/04/11 00:07:30;;;;;;;1999.90;999.90;;;;;;;10.50;100.00;67887.16;4998034;28;20223;-67
2021/04/11 00:10:22;;;;;;;1999.90;999.90;;;;;;;10.59;100.00;74142.66;4997984;28;20595;-66
2021/04/11 00:13:11;;;;;;;1999.90;999.90;;;;;;;10.61;100.00;79412.38;4997783;28;20200;-67
2021/04/11 00:16:02;;;;;;;1999.90;999.90;;;;;;;10.46;100.00;79391.94;4997632;28;20218;-67
2021/04/11 00:18:48;;;;;;;1999.90;999.90;;;;;;;10.37;100.00;80039.00;4997632;28;20332;-67
2021/04/11 00:21:34;;;;;;;1999.90;999.90;;;;;;;10.47;100.00;84337.13;4997686;28;20224;-67
2021/04/11 00:24:21;;;;;;;1999.90;999.90;;;;;;;10.51;100.00;86651.94;4997891;28;20598;-68
2021/04/11 00:27:07;;;;;;;1999.90;999.90;;;;;;;10.47;100.00;87965.94;4997431;28;20202;-67
2021/04/11 00:29:53;;;;;;;1999.90;999.90;;;;;;;10.47;100.00;88625.31;4997557;28;20335;-67
2021/04/11 00:32:40;;;;;;;1999.90;999.90;;;;;;;10.59;100.00;91286.47;4997410;28;20666;-68
2021/04/11 00:35:26;;;;;;;1999.90;999.90;;;;;;;10.55;100.00;88308.13;4997526;28;20357;-68
2021/04/11 00:38:14;;;;;;;1999.90;999.90;;;;;;;10.34;100.00;88277.09;4997407;28;20234;-67
2021/04/11 00:41:11;;;;;;;1999.90;999.90;;;;;;;10.51;100.00;90942.88;4997558;28;20489;-68
2021/04/11 00:43:57;;;;;;;1999.90;999.90;;;;;;;10.42;100.00;86967.75;4997964;28;20207;-68
2021/04/11 00:46:46;;;;;;;1999.90;999.90;;;;;;;10.56;100.00;85668.81;4997269;28;20195;-68
2021/04/11 00:49:35;;;;;;;1999.90;999.90;;;;;;;10.31;100.00;84314.72;4997982;28;20270;-67
2021/04/11 00:52:20;;;;;;;1999.90;999.90;;;;;;;10.41;100.00;87296.94;4996367;28;20221;-68
2021/04/11 00:55:08;;;;;;;1999.90;999.90;;;;;;;10.42;100.00;89608.81;4996453;28;20316;-67
2021/04/11 00:57:55;;;;;;;1999.90;999.90;;;;;;;10.54;100.00;90948.34;4996712;28;20325;-68
2021/04/11 01:00:41;;;;;;;1999.90;999.90;;;;;;;10.37;100.00;88610.16;4996288;28;20265;-68
2021/04/11 01:03:30;;;;;;;1999.90;999.90;;;;;;;10.52;100.00;88963.81;4996258;28;20219;-67
2021/04/11 01:06:18;;;;;;;1999.90;999.90;;;;;;;10.34;100.00;86296.84;4997250;28;20203;-67
2021/04/11 01:09:11;;;;;;;1999.90;999.90;;;;;;;10.44;100.00;86971.47;4996940;28;20468;-67
2021/04/11 01:12:02;;;;;;;1999.90;999.90;;;;;;;10.68;100.00;86016.41;4996804;28;20601;-68
2021/04/11 01:14:49;;;;;;;1999.90;999.90;;;;;;;10.55;100.00;78746.19;4996867;28;20291;-68
2021/04/11 01:17:35;;;;;;;1999.90;999.90;;;;;;;10.59;100.00;78092.91;4995706;28;20199;-68
2021/04/11 01:20:25;;;;;;;1999.90;999.90;;;;;;;10.32;100.00;74108.94;4995930;28;20199;-67
2021/04/11 01:23:18;;;;;;;1999.90;999.90;;;;;;;10.55;100.00;70521.38;5001234;28;20213;-68
2021/04/11 01:26:05;;;;;;;1999.90;999.90;;;;;;;10.57;100.00;65401.97;5002864;28;20228;-67
2021/04/11 01:28:51;;;;;;;1999.90;999.90;;;;;;;10.82;100.00;58800.28;5002686;28;20204;-68
2021/04/11 01:31:39;;;;;;;1999.90;999.90;;;;;;;10.79;100.00;52297.56;5002334;28;20640;-68
2021/04/11 01:34:26;;;;;;;1999.90;999.90;;;;;;;10.85;100.00;45785.59;5003060;28;20197;-68
2021/04/11 01:37:14;;;;;;;1999.90;999.90;;;;;;;10.83;100.00;38018.00;5003033;28;20352;-67
2021/04/11 01:39:59;;;;;;;1999.90;999.90;;;;;;;10.57;100.00;36140.16;5003375;28;20226;-67
2021/04/11 01:42:46;;;;;;;1999.90;999.90;;;;;;;10.74;100.00;37989.09;5004037;28;20267;-67
2021/04/11 01:45:38;;;;;;;1999.90;999.90;;;;;;;10.62;100.00;32687.78;5004404;28;20274;-67
2021/04/11 01:48:24;;;;;;;1999.90;999.90;;;;;;;10.80;100.00;30289.00;5004439;28;20206;-67
2021/04/11 01:51:12;;;;;;;1999.90;999.90;;;;;;;10.81;100.00;28525.31;5002948;28;20543;-66
2021/04/11 01:53:59;;;;;;;1999.90;999.90;;;;;;;10.79;100.00;25290.63;5002604;28;20354;-67
2021/04/11 01:56:47;;;;;;;1999.90;999.90;;;;;;;11.06;100.00;24657.41;5002765;28;20203;-69
2021/04/11 01:59:35;;;;;;;1999.90;999.90;;;;;;;10.88;100.00;22537.31;5002489;28;20442;-69
2021/04/11 02:02:23;;;;;;;1999.90;999.90;;;;;;;10.90;100.00;24792.75;5006704;28;20263;-69
2021/04/11 02:05:11;;;;;;;1999.90;999.90;;;;;;;10.78;100.00;30232.00;5005606;28;20237;-67
2021/04/11 02:07:59;;;;;;;1999.90;999.90;;;;;;;10.76;100.00;33318.63;5002988;28;20597;-66
2021/04/11 02:10:47;;;;;;;1999.90;999.90;;;;;;;10.84;100.00;35706.25;5002193;28;20324;-68
2021/04/11 02:13:36;;;;;;;1999.90;999.90;;;;;;;10.65;100.00;34599.91;5002514;28;20201;-68
2021/04/11 02:16:27;;;;;;;1999.90;999.90;;;;;;;10.96;100.00;40104.47;5002456;28;20346;-68
2021/04/11 02:19:15;;;;;;;1999.90;999.90;;;;;;;10.85;100.00;37127.69;5002887;28;20768;-68
2021/04/11 02:22:06;;;;;;;1999.90;999.90;;;;;;;10.75;100.00;42159.53;5002718;28;20373;-69
2021/04/11 02:24:53;;;;;;;1999.90;999.90;;;;;;;10.58;100.00;44975.72;5005476;28;20334;-68
2021/04/11 02:27:39;;;;;;;1999.90;999.90;;;;;;;10.92;100.00;42697.91;5002547;28;20537;-68
2021/04/11 02:30:27;;;;;;;1999.90;999.90;;;;;;;10.85;100.00;46765.63;5002151;28;20201;-68
2021/04/11 02:33:13;;;;;;;1999.90;999.90;;;;;;;10.79;100.00;45415.81;5001193;28;20594;-68
2021/04/11 02:35:58;;;;;;;1999.90;999.90;;;;;;;10.97;100.00;48175.69;4999832;28;20206;-68
2021/04/11 02:38:45;;;;;;;1999.90;999.90;;;;;;;10.83;100.00;47297.72;4999909;28;20236;-68
2021/04/11 02:41:31;;;;;;;1999.90;999.90;;;;;;;11.01;100.00;46714.78;4999917;28;20352;-69
2021/04/11 02:44:17;;;;;;;1999.90;999.90;;;;;;;11.11;100.00;44876.38;4999587;28;20208;-69
2021/04/11 02:47:04;;;;;;;1999.90;999.90;;;;;;;11.00;100.00;46049.97;4999528;28;20205;-68
2021/04/11 02:49:52;;;;;;;1999.90;999.90;;;;;;;10.83;100.00;43698.91;4999672;28;20296;-68
2021/04/11 02:52:41;;;;;;;1999.90;999.90;;;;;;;10.79;100.00;41201.13;4999325;28;20206;-68
2021/04/11 02:55:31;;;;;;;1999.90;999.90;;;;;;;11.03;100.00;43142.09;4999787;28;20289;-68
2021/04/11 02:58:20;;;;;;;1999.90;999.90;;;;;;;10.98;100.00;41755.53;4999433;28;20682;-68
2021/04/11 03:01:09;;;;;;;1999.90;999.90;;;;;;;10.95;100.00;39728.63;4999584;28;20300;-68
2021/04/11 03:03:55;;;;;;;1999.90;999.90;;;;;;;10.94;100.00;35987.59;4999160;28;20244;-69
2021/04/11 03:06:47;;;;;;;1999.90;999.90;;;;;;;11.04;100.00;34358.56;4999245;28;20209;-68
2021/04/11 03:09:36;;;;;;;1999.90;999.90;;;;;;;11.20;100.00;40184.69;4998906;28;20481;-68
2021/04/11 03:12:23;;;;;;;1999.90;999.90;;;;;;;10.91;100.00;31938.38;4998959;28;20492;-68
2021/04/11 03:15:11;;;;;;;1999.90;999.90;;;;;;;10.92;100.00;31892.84;4999056;28;20263;-68
2021/04/11 03:17:57;;;;;;;1999.90;999.90;;;;;;;11.26;100.00;35889.97;4999390;28;20201;-68
2021/04/11 03:20:44;;;;;;;1999.90;999.90;;;;;;;10.93;100.00;31361.72;4999013;28;20210;-68
2021/04/11 03:23:32;;;;;;;1999.90;999.90;;;;;;;10.84;100.00;32844.94;4998722;28;20354;-68
2021/04/11 03:26:24;;;;;;;1999.90;999.90;;;;;;;11.06;100.00;32137.41;4998167;28;20209;-68
2021/04/11 03:29:16;;;;;;;1999.90;999.90;;;;;;;11.02;100.00;30980.00;4998948;28;20195;-68
2021/04/11 03:32:07;;;;;;;1999.90;999.90;;;;;;;11.07;100.00;27305.53;4998848;28;20202;-68
2021/04/11 03:34:55;;;;;;;1999.90;999.90;;;;;;;10.95;100.00;24342.72;4998833;28;20201;-68
2021/04/11 03:37:42;;;;;;;1999.90;999.90;;;;;;;10.91;100.00;26106.13;4998534;28;20217;-69
2021/04/11 03:40:31;;;;;;;1999.90;999.90;;;;;;;11.25;100.00;25008.88;4998656;28;20383;-69
2021/04/11 03:43:21;;;;;;;1999.90;999.90;;;;;;;11.03;100.00;20693.47;4998392;28;20301;-68
2021/04/11 03:46:14;;;;;;;1999.90;999.90;;;;;;;10.93;100.00;25744.03;4997707;28;20206;-68
2021/04/11 03:49:07;;;;;;;1999.90;999.90;;;;;;;11.16;100.00;25101.16;4998448;28;20606;-68
2021/04/11 03:51:58;;;;;;;1999.90;999.90;;;;;;;11.17;100.00;21381.13;4998234;28;20210;-68
2021/04/11 03:54:45;;;;;;;1999.90;999.90;;;;;;;11.34;100.00;22787.03;4998281;28;20271;-68
2021/04/11 03:57:40;;;;;;;1999.90;999.90;;;;;;;11.11;100.00;19612.69;4998272;28;20752;-68
2021/04/11 04:00:28;;;;;;;1999.90;999.90;;;;;;;11.46;100.00;17214.31;4998034;28;20231;-69
2021/04/11 04:03:19;;;;;;;1999.90;999.90;;;;;;;11.19;100.00;16612.69;4997975;28;20602;-68
2021/04/11 04:06:09;;;;;;;1999.90;999.90;;;;;;;11.00;100.00;23055.00;4998186;28;20370;-68
2021/04/11 04:08:55;;;;;;;1999.90;999.90;;;;;;;11.37;100.00;24511.06;4998275;28;20202;-68
2021/04/11 04:12:00;;;;;;;1999.90;999.90;;;;;;;11.12;100.00;26677.59;4997992;28;20223;-68
2021/04/11 04:14:57;;;;;;;1999.90;999.90;;;;;;;11.11;100.00;34872.13;4997438;28;20203;-69
2021/04/11 04:17:55;;;;;;;1999.90;999.90;;;;;;;11.25;100.00;46677.66;4997173;28;20411;-69
2021/04/11 04:20:47;;;;;;;1999.90;999.90;;;;;;;11.12;100.00;43995.94;4997118;28;20206;-69
2021/04/11 04:23:50;;;;;;;1999.90;999.90;;;;;;;11.19;100.00;57807.75;4997099;28;20374;-69
2021/04/11 04:26:44;;;;;;;1999.90;999.90;;;;;;;11.11;100.00;69929.59;5011966;23;20254;-36
2021/04/11 04:29:40;;;;;;;1999.90;999.90;;;;;;;11.02;100.00;70577.16;5055901;28;20202;-37
2021/04/11 04:32:51;;;;;;;1999.90;999.90;;;;;;;10.82;100.00;82078.09;5056819;28;20210;-37
2021/04/11 04:35:43;;;;;;;1999.90;999.90;;;;;;;10.93;100.00;88364.09;5057011;28;20201;-33
2021/04/11 04:38:38;;;;;;;1999.90;999.90;;;;;;;10.59;100.00;93268.47;5056608;28;20300;-34
2021/04/11 04:41:36;;;;;;;1999.90;999.90;;;;;;;10.17;100.00;103454.66;5057016;28;20601;-36
2021/04/11 04:44:37;;;;;;;1999.90;999.90;;;;;;;10.31;100.00;112764.31;5056984;28;20478;-38
2021/04/11 04:47:37;;;;;;;1999.90;999.90;;;;;;;9.91;100.00;113684.47;5056574;28;20461;-36
2021/04/11 04:50:29;;;;;;;1999.90;999.90;;;;;;;10.06;100.00;119026.88;5056564;28;20367;-36
2021/04/11 04:53:23;;;;;;;1999.90;999.90;;;;;;;10.35;100.00;118752.44;5056353;28;20493;-35
2021/04/11 04:56:16;;;;;;;1999.90;999.90;;;;;;;10.60;100.00;117140.38;5055343;28;20209;-35
2021/04/11 04:59:09;;;;;;;1999.90;999.90;;;;;;;10.42;100.00;107807.91;5056497;28;20226;-36
2021/04/11 05:02:04;;;;;;;1999.90;999.90;;;;;;;10.46;100.00;101849.81;5056452;28;20200;-33
2021/04/11 05:04:57;;;;;;;1999.90;999.90;;;;;;;10.37;100.00;97861.81;5056437;28;20224;-34
2021/04/11 05:07:50;;;;;;;1999.90;999.90;;;;;;;9.96;100.00;103087.34;5056501;28;20205;-35
2021/04/11 05:10:42;;;;;;;1999.90;999.90;;;;;;;9.95;100.00;103747.63;5056265;28;20592;-34
2021/04/11 05:13:33;;;;;;;1999.90;999.90;;;;;;;9.95;100.00;106729.09;5056442;28;20235;-36
2021/04/11 05:16:23;;;;;;;1999.90;999.90;;;;;;;9.38;100.00;104639.66;5056455;28;20260;-37
2021/04/11 05:19:14;;;;;;;1999.90;999.90;;;;;;;9.51;100.00;109960.56;5056235;28;20334;-34
2021/04/11 05:22:04;;;;;;;1999.90;999.90;;;;;;;9.38;100.00;110599.59;5056118;28;20714;-37
2021/04/11 05:24:57;;;;;;;1999.90;999.90;;;;;;;9.26;100.00;111902.97;5056040;28;20201;-37
2021/04/11 05:27:56;;;;;;;1999.90;999.90;;;;;;;9.39;100.00;109938.94;5056272;28;20356;-38
2021/04/11 05:30:47;;;;;;;1999.90;999.90;;;;;;;9.98;100.00;109385.00;5055850;28;20193;-37
2021/04/11 05:33:38;;;;;;;1999.90;999.90;;;;;;;10.07;100.00;97151.16;5056126;28;20200;-36
2021/04/11 05:36:41;;;;;;;1999.90;999.90;;;;;;;10.24;100.00;87931.28;5055776;28;20204;-38
2021/04/11 05:39:44;;;;;;;1999.90;999.90;;;;;;;9.89;100.00;75370.03;5055916;28;20253;-34
2021/04/11 05:42:39;;;;;;;1999.90;999.90;;;;;;;9.45;100.00;73343.47;5056251;28;20315;-36
2021/04/11 05:45:33;;;;;;;1999.90;999.90;;;;;;;9.86;100.00;78325.34;5055509;28;20200;-34
2021/04/11 05:48:25;;;;;;;1999.90;999.90;;;;;;;9.62;100.00;77306.84;5055821;28;20193;-36
2021/04/11 05:51:17;;;;;;;1999.90;999.90;;;;;;;9.96;100.00;77352.00;5055788;28;20220;-36
2021/04/11 05:54:09;;;;;;;1999.90;999.90;;;;;;;9.93;100.00;68806.19;5055592;28;20601;-35
2021/04/11 05:56:59;;;;;;;1999.90;999.90;;;;;;;9.84;100.00;64859.34;5055323;28;20497;-35
2021/04/11 05:59:52;;;;;;;1999.90;999.90;;;;;;;9.33;100.00;63910.56;5036149;28;20368;-36
2021/04/11 06:02:41;;;;;;;1999.90;999.90;;;;;;;8.99;100.00;76896.84;5048645;28;20666;-33
2021/04/11 06:05:35;;;;;;;1999.90;999.90;;;;;;;9.39;100.00;86158.59;5055711;28;20204;-34
2021/04/11 06:08:29;;;;;;;1999.90;999.90;;;;;;;8.91;100.00;85102.13;5057120;28;20200;-34
2021/04/11 06:11:23;;;;;;;1999.90;999.90;;;;;;;8.23;100.00;89935.47;5059832;28;20352;-33
2021/04/11 06:14:17;;;;;;;1999.90;999.90;;;;;;;8.01;100.00;97144.03;5059640;28;20192;-34
2021/04/11 06:17:11;;;;;;;1999.90;999.90;;;;;;;7.82;100.00;102715.38;5059398;28;20595;-32
2021/04/11 06:19:58;;;;;;;1999.90;999.90;;;;;;;8.16;100.00;106075.78;5059007;28;20523;-32
2021/04/11 06:22:55;;;;;;;1999.90;999.90;;;;;;;8.05;100.00;105065.25;5059673;28;20616;-38
2021/04/11 06:25:48;;;;;;;1999.90;999.90;;;;;;;8.07;100.00;104408.63;5058570;28;20204;-37
2021/04/11 06:28:44;;;;;;;1999.90;999.90;;;;;;;8.00;100.00;103406.06;5058074;28;20643;-36
2021/04/11 06:31:34;;;;;;;1999.90;999.90;;;;;;;7.93;100.00;104385.38;5059374;28;20302;-36
2021/04/11 06:34:24;;;;;;;1999.90;999.90;;;;;;;7.77;100.00;104026.84;5058876;28;20204;-37
2021/04/11 06:37:17;;;;;;;1999.90;999.90;;;;;;;7.77;100.00;105346.66;5058259;28;20290;-32
2021/04/11 06:40:11;;;;;;;1999.90;999.90;;;;;;;8.04;100.00;105393.59;5058681;28;20227;-35
2021/04/11 06:43:19;;;;;;;1999.90;999.90;;;;;;;8.13;100.00;99470.59;5058606;28;20240;-36
2021/04/11 06:46:20;;;;;;;1999.90;999.90;;;;;;;8.05;100.00;97150.72;5050429;28;20215;-36
2021/04/11 06:49:31;;;;;;;1999.90;999.90;;;;;;;7.39;100.00;87836.75;5058746;28;20192;-34
2021/04/11 06:52:45;;;;;;;1999.90;999.90;;;;;;;7.89;100.00;93832.22;5059121;28;20303;-34
2021/04/11 06:56:06;;;;;;;1999.90;999.90;;;;;;;7.93;100.00;90219.59;5058160;28;20204;-32
2021/04/11 06:59:02;;;;;;;1999.90;999.90;;;;;;;8.06;100.00;86292.97;5057845;28;20487;-34
2021/04/11 07:02:25;;;;;;;1999.90;999.90;;;;;;;8.19;100.00;81385.75;5058564;28;20496;-33
2021/04/11 07:05:28;;;;;;;1999.90;999.90;;;;;;;7.99;100.00;72506.47;5057483;28;20203;-36
2021/04/11 07:08:42;;;;;;;1999.90;999.90;;;;;;;7.26;100.00;76017.00;5057931;28;20361;-34
2021/04/11 07:12:05;;;;;;;1999.90;999.90;;;;;;;7.21;100.00;85841.19;5058229;28;20208;-34
2021/04/11 07:15:15;;;;;;;1999.90;999.90;;;;;;;7.52;100.00;87856.34;5058122;28;20223;-34
2021/04/11 07:18:38;;;;;;;1999.90;999.90;;;;;;;6.98;100.00;86464.06;5058368;28;20204;-33
2021/04/11 07:21:49;;;;;;;1999.90;999.90;;;;;;;7.00;100.00;94019.28;5057648;28;20293;-33
2021/04/11 07:25:05;;;;;;;1999.90;999.90;;;;;;;6.90;100.00;95647.38;5058500;28;20201;-39
2021/04/11 07:28:15;;;;;;;1999.90;999.90;;;;;;;6.88;100.00;96630.41;5058230;28;20244;-32
2021/04/11 07:35:36;;;;;;;1999.90;999.90;;;;;;;6.77;100.00;93653.66;5016167;28;20298;-32
2021/04/11 07:38:39;;;;;;;1999.90;999.90;;;;;;;6.84;100.00;92680.16;5016078;28;20283;-34
2021/04/11 07:41:39;;;;;;;1999.90;999.90;;;;;;;6.43;100.00;88350.00;5015897;28;20342;-34
2021/04/11 07:44:51;;;;;;;1999.90;999.90;;;;;;;6.25;100.00;87340.16;5016636;28;20198;-37
2021/04/11 07:47:54;;;;;;;1999.90;999.90;;;;;;;6.17;100.00;88966.88;5016500;28;20198;-34
2021/04/11 07:50:55;;;;;;;1999.90;999.90;;;;;;;6.32;100.00;93253.88;5015619;28;20318;-36
2021/04/11 07:54:21;;;;;;;1999.90;999.90;;;;;;;6.12;100.00;91911.13;5057507;28;20351;-33
2021/04/11 07:57:33;;;;;;;1999.90;999.90;;;;;;;6.47;100.00;94591.38;5057622;28;20195;-38
2021/04/11 08:00:32;;;;;;;1999.90;999.90;;;;;;;6.17;100.00;90279.09;5056767;28;20379;-35
2021/04/11 08:03:38;;;;;;;1999.90;999.90;;;;;;;6.41;100.00;92611.75;5057208;28;20221;-32
2021/04/11 08:06:56;;;;;;;1999.90;999.90;;;;;;;6.53;100.00;89021.94;5057553;28;20259;-36
2021/04/11 08:10:10;;;;;;;1999.90;999.90;;;;;;;5.79;100.00;85634.88;5048795;28;20216;-36
2021/04/11 08:13:32;;;;;;;1999.90;999.90;;;;;;;6.21;100.00;91924.53;5057091;28;20224;-34
2021/04/11 08:16:32;;;;;;;1999.90;999.90;;;;;;;6.15;100.00;87980.56;5057106;28;20217;-34
2021/04/11 08:19:54;;;;;;;1999.90;999.90;;;;;;;6.20;100.00;86022.09;5056805;28;20227;-35
2021/04/11 08:22:57;;;;;;;1999.90;999.90;;;;;;;6.32;100.00;87678.44;5056417;28;20226;-36
2021/04/11 08:25:57;;;;;;;1999.90;999.90;;;;;;;6.49;100.00;89671.06;5056179;28;20469;-34
2021/04/11 08:29:16;;;;;;;1999.90;999.90;;;;;;;6.25;100.00;88322.69;5056770;28;20245;-33
2021/04/11 08:32:41;;;;;;;1999.90;999.90;;;;;;;6.10;100.00;84370.00;5055661;28;20521;-37
2021/04/11 08:35:37;;;;;;;1999.90;999.90;;;;;;;6.43;100.00;85728.41;5056507;28;20205;-34
2021/04/11 08:38:46;;;;;;;1999.90;999.90;;;;;;;6.55;100.00;84762.97;5056832;28;20201;-34
2021/04/11 08:42:02;;;;;;;1999.90;999.90;;;;;;;6.33;100.00;79493.50;5056820;28;20209;-34
2021/04/11 08:44:59;;;;;;;1999.90;999.90;;;;;;;6.25;100.00;74252.03;5056641;28;20206;-34
2021/04/11 08:47:52;;;;;;;1999.90;999.90;;;;;;;6.25;100.00;71639.69;5055947;28;20209;-33
2021/04/11 08:50:46;;;;;;;1999.90;999.90;;;;;;;5.87;100.00;67681.69;5056181;28;20494;-34
2021/04/11 08:53:51;;;;;;;1999.90;999.90;;;;;;;5.96;100.00;72910.47;5055709;28;20352;-35
2021/04/11 08:56:40;;;;;;;1999.90;999.90;;;;;;;6.05;100.00;73901.22;5055314;28;20205;-35
2021/04/11 08:59:37;;;;;;;1999.90;999.90;;;;;;;6.16;100.00;74567.81;5055454;28;20411;-39
2021/04/11 09:02:40;;;;;;;1999.90;999.90;;;;;;;6.04;100.00;71614.38;5055491;28;20221;-33
2021/04/11 09:05:48;;;;;;;1999.90;999.90;;;;;;;6.41;100.00;74273.13;5055699;28;20384;-32
2021/04/11 09:08:40;;;;;;;1999.90;999.90;;;;;;;6.50;100.00;64166.94;5056252;28;20205;-33
2021/04/11 09:11:33;;;;;;;1999.90;999.90;;;;;;;5.87;100.00;54904.91;5055901;28;20351;-34
2021/04/11 09:14:41;;;;;;;1999.90;999.90;;;;;;;6.02;100.00;55936.88;5056098;28;20497;-35
2021/04/11 09:18:03;;;;;;;1999.90;999.90;;;;;;;6.20;100.00;56081.34;5055624;28;20296;-32
2021/04/11 09:21:04;;;;;;;1999.90;999.90;;;;;;;6.26;100.00;51610.47;5056050;28;20581;-38
2021/04/11 09:24:05;;;;;;;1999.90;999.90;;;;;;;6.59;100.00;50207.91;5055884;28;20465;-36
2021/04/11 09:27:34;;;;;;;1999.90;999.90;;;;;;;5.83;100.00;42436.56;5055753;28;20212;-33
2021/04/11 09:30:58;;;;;;;1999.90;999.90;;;;;;;6.06;100.00;41398.06;5045908;28;20294;-33
2021/04/11 09:34:35;;;;;;;1999.90;999.90;;;;;;;5.93;100.00;38432.69;5056238;28;20612;-32
2021/04/11 09:37:43;;;;;;;1999.90;999.90;;;;;;;5.94;100.00;42826.47;5056107;28;20604;-32
2021/04/11 09:40:43;;;;;;;1999.90;999.90;;;;;;;6.19;100.00;45454.00;5055760;28;20231;-34
2021/04/11 09:43:47;;;;;;;1999.90;999.90;;;;;;;5.90;100.00;33815.50;5057594;28;20466;-36
2021/04/11 09:47:02;;;;;;;1999.90;999.90;;;;;;;5.87;100.00;39394.91;5059661;28;20299;-37
2021/04/11 09:50:10;;;;;;;1999.90;999.90;;;;;;;5.62;100.00;38487.88;5060217;28;20204;-35
2021/04/11 09:53:28;;;;;;;1999.90;999.90;;;;;;;5.55;100.00;38612.34;5059541;28;20346;-32
2021/04/11 09:56:31;;;;;;;1999.90;999.90;;;;;;;6.20;100.00;40823.66;5033924;28;20200;-34
2021/04/11 09:59:32;;;;;;;1999.90;999.90;;;;;;;5.97;100.00;27157.13;5040189;28;20223;-35
2021/04/11 10:02:38;;;;;;;1999.90;999.90;;;;;;;5.84;100.00;22129.28;5039594;28;20197;-38
2021/04/11 10:05:32;;;;;;;1999.90;999.90;;;;;;;5.71;100.00;20322.81;5038689;28;20458;-35
2021/04/11 10:08:57;;;;;;;1999.90;999.90;;;;;;;5.52;100.00;23505.44;5038659;28;20200;-32
2021/04/11 10:12:02;;;;;;;1999.90;999.90;;;;;;;6.01;100.00;27922.94;5040349;28;20201;-35
2021/04/11 10:14:59;;;;;;;1999.90;999.90;;;;;;;5.83;100.00;28763.72;5059078;28;20280;-33
2021/04/11 10:18:13;;;;;;;1999.90;999.90;;;;;;;6.01;100.00;30106.94;5059557;28;20204;-37
2021/04/11 10:21:19;;;;;;;1999.90;999.90;;;;;;;5.91;100.00;21027.03;5054479;28;20314;-32
2021/04/11 10:24:33;;;;;;;1999.90;999.90;;;;;;;5.83;100.00;24913.66;5058500;28;20201;-33
2021/04/11 10:27:25;;;;;;;1999.90;999.90;;;;;;;6.04;100.00;22295.91;5059217;28;20231;-35
2021/04/11 10:30:18;;;;;;;1999.90;999.90;;;;;;;6.17;100.00;22074.31;5058821;28;20500;-33
2021/04/11 10:33:14;;;;;;;1999.90;999.90;;;;;;;5.90;100.00;13422.28;5058992;28;20624;-34
2021/04/11 10:36:05;;;;;;;1999.90;999.90;;;;;;;6.44;100.00;9709.84;5058513;28;20349;-36
2021/04/11 10:38:58;;;;;;;1999.90;999.90;;;;;;;6.07;100.00;-886.31;5054129;28;20216;-43
2021/04/11 10:42:05;;;;;;;1999.90;999.90;;;;;;;6.27;100.00;5784.63;5058973;28;20244;-33
2021/04/11 10:45:08;;;;;;;1999.90;999.90;;;;;;;5.93;100.00;1173.38;5058298;28;20196;-35
2021/04/11 10:48:33;;;;;;;1999.90;999.90;;;;;;;6.84;100.00;5465.53;5057946;28;20199;-34
2021/04/11 10:51:48;;;;;;;1999.90;999.90;;;;;;;6.19;100.00;-2527.97;5058375;28;20610;-35
2021/04/11 10:55:08;;;;;;;1999.90;999.90;;;;;;;5.75;100.00;-203.84;5057774;28;20225;-32
2021/04/11 10:58:39;;;;;;;1999.90;999.90;;;;;;;5.70;100.00;3851.00;5058664;28;20349;-37
2021/04/11 11:01:48;;;;;;;1999.90;999.90;;;;;;;5.89;100.00;7705.25;5058434;28;20223;-35
2021/04/11 11:05:25;;;;;;;1999.90;999.90;;;;;;;6.56;100.00;7449.81;5058169;28;20209;-33
2021/04/11 11:08:49;;;;;;;1999.90;999.90;;;;;;;5.82;100.00;-233.69;5057645;28;20201;-32
2021/04/11 11:11:56;;;;;;;1999.90;999.90;;;;;;;5.70;100.00;1995.69;5056451;28;20211;-32
2021/04/11 11:15:10;;;;;;;1999.90;999.90;;;;;;;5.94;100.00;5361.81;5057954;28;20205;-32
2021/04/11 11:18:26;;;;;;;1999.90;999.90;;;;;;;5.90;100.00;5273.59;5057989;28;20248;-33
2021/04/11 11:21:45;;;;;;;1999.90;999.90;;;;;;;5.43;100.00;-432.31;5058044;28;20213;-34
2021/04/11 11:24:56;;;;;;;1999.90;999.90;;;;;;;6.21;100.00;6325.56;5042290;28;20204;-36
2021/04/11 11:28:18;;;;;;;1999.90;999.90;;;;;;;6.22;100.00;3084.03;5038411;28;20518;-33
2021/04/11 11:31:31;;;;;;;1999.90;999.90;;;;;;;5.96;100.00;-4600.78;5038400;28;20197;-33
2021/04/11 11:34:32;;;;;;;1999.90;999.90;;;;;;;6.03;100.00;-3598.34;5058222;28;20348;-33
2021/04/11 11:37:48;;;;;;;1999.90;999.90;;;;;;;6.12;100.00;-3070.78;5058123;28;20200;-34
2021/04/11 11:40:42;;;;;;;1999.90;999.90;;;;;;;6.00;100.00;-1577.06;5057933;28;20227;-33
2021/04/11 11:43:35;;;;;;;1999.90;999.90;;;;;;;5.56;100.00;340.91;5058233;28;20208;-33
2021/04/11 11:46:29;;;;;;;1999.90;999.90;;;;;;;5.85;100.00;4012.78;5058207;28;20267;-33
2021/04/11 11:49:23;;;;;;;1999.90;999.90;;;;;;;6.08;100.00;5438.78;5058061;28;20495;-36
2021/04/11 11:52:27;;;;;;;1999.90;999.90;;;;;;;5.98;100.00;3112.06;5058509;28;20220;-33
2021/04/11 11:55:27;;;;;;;1999.90;999.90;;;;;;;5.60;100.00;2615.81;5057425;28;20592;-34
2021/04/11 11:58:20;;;;;;;1999.90;999.90;;;;;;;5.66;100.00;8127.75;5058000;28;20718;-37
2021/04/11 12:01:22;;;;;;;1999.90;999.90;;;;;;;6.12;100.00;9909.66;5057797;28;20288;-35
2021/04/11 12:04:31;;;;;;;1999.90;999.90;;;;;;;6.09;100.00;5644.41;5057646;28;20208;-35
2021/04/11 12:07:27;;;;;;;1999.90;999.90;;;;;;;5.97;100.00;5680.50;5056373;28;20196;-35
2021/04/11 12:10:27;;;;;;;1999.90;999.90;;;;;;;6.16;100.00;3386.72;5057873;28;20192;-32
2021/04/11 12:13:46;;;;;;;1999.90;999.90;;;;;;;5.67;100.00;-3722.31;5058029;28;20343;-33
2021/04/11 12:16:39;;;;;;;1999.90;999.90;;;;;;;5.77;100.00;-4457.50;5056321;28;20213;-35
2021/04/11 12:19:34;;;;;;;1999.90;999.90;;;;;;;5.78;100.00;-3957.63;5037112;28;20363;-36
2021/04/11 12:22:34;;;;;;;1999.90;999.90;;;;;;;5.88;100.00;-3950.47;5037448;28;20192;-35
2021/04/11 12:25:28;;;;;;;1999.90;999.90;;;;;;;5.76;100.00;-4050.06;5036970;28;20283;-38
2021/04/11 12:28:25;;;;;;;1999.90;999.90;;;;;;;5.86;100.00;-6214.78;5036701;28;20283;-34
2021/04/11 12:31:23;;;;;;;1999.90;999.90;;;;;;;6.01;100.00;-1989.91;5036798;28;20197;-34
2021/04/11 12:34:29;;;;;;;1999.90;999.90;;;;;;;6.32;100.00;-309.94;5044210;28;20719;-37
2021/04/11 12:37:23;;;;;;;1999.90;999.90;;;;;;;5.75;100.00;-6501.22;5056951;28;20196;-35
2021/04/11 12:40:27;;;;;;;1999.90;999.90;;;;;;;5.60;100.00;486.16;5056449;28;20654;-33
2021/04/11 12:43:20;;;;;;;1999.90;999.90;;;;;;;5.80;100.00;4996.84;5056312;28;20196;-33
2021/04/11 12:46:13;;;;;;;1999.90;999.90;;;;;;;6.03;100.00;7800.22;5056062;28;20256;-32
2021/04/11 12:49:05;;;;;;;1999.90;999.90;;;;;;;5.73;100.00;3926.44;5056463;28;20201;-33
2021/04/11 12:52:00;;;;;;;1999.90;999.90;;;;;;;5.79;100.00;1608.25;5056679;28;20193;-38
2021/04/11 12:54:53;;;;;;;1999.90;999.90;;;;;;;5.54;100.00;-1839.84;5054582;28;20346;-33
2021/04/11 12:57:46;;;;;;;1999.90;999.90;;;;;;;5.99;100.00;52281.75;5056894;28;20219;-31
2021/04/11 13:00:40;;;;;;;1999.90;999.90;;;;;;;6.15;100.00;95853.47;5056861;28;20240;-37
2021/04/11 13:03:31;;;;;;;1999.90;999.90;;;;;;;6.01;100.00;98785.97;5056377;28;20611;-34
2021/04/11 13:06:22;;;;;;;1999.90;999.90;;;;;;;5.77;100.00;92183.69;5056140;28;20301;-35
2021/04/11 13:09:26;;;;;;;1999.90;999.90;;;;;;;5.69;100.00;75813.75;5045543;28;20207;-35
2021/04/11 13:12:21;;;;;;;1999.90;999.90;;;;;;;5.71;100.00;48282.41;5056394;28;20200;-33